^^
Saratoga-Weather Station Historical Data
Daily Summary for August 05, 2022 Units:  Both    English   Metric
Daily Weekly Monthly Yearly Custom
  High: Low: Average:
Temperature: 78.1 °F /  25.6 °C 65.7 °F /  18.7 °C 70.5 °F /  21.4 °C
Dew Point: 68.4 °F /  20.2 °C 55.8 °F /  13.2 °C 63.5 °F /  17.5 °C
Humidity: 94% 50% 80%
Wind Speed: 10.1mph /  16.3km/h - 2.7mph /  4.4km/h
Wind Gust: 15mph /  24.1km/h - -
Wind- - West
Pressure: 30.2 in /  1021.3 hPa 29.8 in /  1010.2 hPa -
Precipitation: 0.35 in /  8.9 mm    
Historical Graphs
 
 
Tabular Data for August 05, 2022
Time Temperature Dew Point Pressure Wind Wind Speed Wind Gust Humidity Rainfall Rate (Hourly) solar
00:01 73.2 °F /  22.9 °C 67.8 °F /  19.9 °C 29.9in /  1012.9hPa Calm   2mph /  3.2km/h 83% 0.03in /  0.8mm 0 W/m2
00:06 72.9 °F /  22.7 °C 67.8 °F /  19.9 °C 29.9in /  1012.5hPa East 2mph /  3.2km/h 2mph /  3.2km/h 84% 0.03in /  0.8mm 0 W/m2
00:11 72.7 °F /  22.6 °C 68.2 °F /  20.1 °C 29.9in /  1011.9hPa Calm   1mph /  1.6km/h 86% 0.03in /  0.8mm 0 W/m2
00:16 72.3 °F /  22.4 °C 68.2 °F /  20.1 °C 29.9in /  1011.5hPa SSW 0.9mph /  1.4km/h 2mph /  3.2km/h 87% 0.03in /  0.8mm 0 W/m2
00:21 72.1 °F /  22.3 °C 68.4 °F /  20.2 °C 29.9in /  1011.5hPa Calm   1mph /  1.6km/h 88% 0.03in /  0.8mm 0 W/m2
00:26 71.8 °F /  22.1 °C 68 °F /  20 °C 29.9in /  1011.5hPa Calm   1mph /  1.6km/h 88% 0.03in /  0.8mm 0 W/m2
00:31 71.4 °F /  21.9 °C 67.6 °F /  19.8 °C 29.9in /  1011.5hPa South 2mph /  3.2km/h 2mph /  3.2km/h 88% 0.02in /  0.5mm 0 W/m2
00:36 71.2 °F /  21.8 °C 67.8 °F /  19.9 °C 29.9in /  1011.9hPa SSW 0.9mph /  1.4km/h 2mph /  3.2km/h 89% 0.02in /  0.5mm 0 W/m2
00:41 71.2 °F /  21.8 °C 68.2 °F /  20.1 °C 29.9in /  1012.2hPa SSW 0.9mph /  1.4km/h 2mph /  3.2km/h 90% 0.02in /  0.5mm 0 W/m2
00:46 71.1 °F /  21.7 °C 68 °F /  20 °C 29.9in /  1012.2hPa SSW 0.9mph /  1.4km/h 2mph /  3.2km/h 90% 0.02in /  0.5mm 0 W/m2
00:51 71.1 °F /  21.7 °C 68 °F /  20 °C 29.9in /  1012.5hPa SSW 0.9mph /  1.4km/h 1mph /  1.6km/h 90% 0.02in /  0.5mm 0 W/m2
00:56 70.9 °F /  21.6 °C 67.8 °F /  19.9 °C 29.9in /  1012.2hPa Calm   1mph /  1.6km/h 90% 0.02in /  0.5mm 0 W/m2
01:02 70.9 °F /  21.6 °C 68.2 °F /  20.1 °C 29.9in /  1012.2hPa Calm     91% 0.01in /  0.2mm 0 W/m2
01:07 70.7 °F /  21.5 °C 68 °F /  20 °C 29.9in /  1011.9hPa Calm   1mph /  1.6km/h 91% 0.01in /  0.2mm 0 W/m2
01:12 70.7 °F /  21.5 °C 68 °F /  20 °C 29.9in /  1011.9hPa Calm     91% 0.01in /  0.2mm 0 W/m2
01:17 70.5 °F /  21.4 °C 67.8 °F /  19.9 °C 29.9in /  1011.9hPa Calm   1mph /  1.6km/h 91% 0.01in /  0.2mm 0 W/m2
01:22 70.5 °F /  21.4 °C 67.8 °F /  19.9 °C 29.9in /  1011.5hPa Calm   2mph /  3.2km/h 91% 0.01in /  0.2mm 0 W/m2
01:27 70.3 °F /  21.3 °C 67.6 °F /  19.8 °C 29.9in /  1011.2hPa Calm   1mph /  1.6km/h 91% 0in /  0.0mm 0 W/m2
01:32 70.3 °F /  21.3 °C 67.6 °F /  19.8 °C 29.9in /  1010.8hPa SSW 0.9mph /  1.4km/h 2mph /  3.2km/h 91% 0in /  0.0mm 0 W/m2
01:37 70.2 °F /  21.2 °C 67.5 °F /  19.7 °C 29.9in /  1010.8hPa Calm   2mph /  3.2km/h 91% 0in /  0.0mm 0 W/m2
01:42 70.2 °F /  21.2 °C 67.5 °F /  19.7 °C 29.9in /  1010.8hPa Calm   1mph /  1.6km/h 91% 0in /  0.0mm 0 W/m2
01:47 70.2 °F /  21.2 °C 67.6 °F /  19.8 °C 29.9in /  1010.8hPa Calm   2mph /  3.2km/h 92% 0in /  0.0mm 0 W/m2
01:52 70.2 °F /  21.2 °C 67.6 °F /  19.8 °C 29.8in /  1010.5hPa SSW 0.9mph /  1.4km/h 2mph /  3.2km/h 92% 0in /  0.0mm 0 W/m2
01:57 70 °F /  21.1 °C 67.5 °F /  19.7 °C 29.8in /  1010.5hPa Calm   2mph /  3.2km/h 92% 0in /  0.0mm 0 W/m2
02:02 70 °F /  21.1 °C 67.5 °F /  19.7 °C 29.8in /  1010.2hPa Calm     92% 0in /  0.0mm 0 W/m2
02:07 70 °F /  21.1 °C 67.5 °F /  19.7 °C 29.8in /  1010.2hPa SSW 2mph /  3.2km/h 2mph /  3.2km/h 92% 0in /  0.0mm 0 W/m2
02:12 70 °F /  21.1 °C 67.5 °F /  19.7 °C 29.8in /  1010.2hPa West 0.9mph /  1.4km/h 3mph /  4.8km/h 92% 0in /  0.0mm 0 W/m2
02:17 70.2 °F /  21.2 °C 67.6 °F /  19.8 °C 29.8in /  1010.5hPa SW 0.9mph /  1.4km/h 2mph /  3.2km/h 92% 0in /  0.0mm 0 W/m2
02:22 70.2 °F /  21.2 °C 67.6 °F /  19.8 °C 29.8in /  1010.5hPa SW 0.9mph /  1.4km/h 3mph /  4.8km/h 92% 0in /  0.0mm 0 W/m2
02:27 70.3 °F /  21.3 °C 67.8 °F /  19.9 °C 29.8in /  1010.5hPa SW 0.9mph /  1.4km/h 2mph /  3.2km/h 92% 0in /  0.0mm 0 W/m2
02:32 70.3 °F /  21.3 °C 67.8 °F /  19.9 °C 29.9in /  1010.8hPa Calm   1mph /  1.6km/h 92% 0.01in /  0.2mm 0 W/m2
02:37 70.3 °F /  21.3 °C 67.8 °F /  19.9 °C 29.9in /  1011.2hPa Calm     92% 0.01in /  0.2mm 0 W/m2
02:42 70.2 °F /  21.2 °C 67.6 °F /  19.8 °C 29.9in /  1011.9hPa WNW 4mph /  6.4km/h 9mph /  14.5km/h 92% 0.01in /  0.2mm 0 W/m2
02:47 70.2 °F /  21.2 °C 67.6 °F /  19.8 °C 29.9in /  1011.5hPa NW 2mph /  3.2km/h 3mph /  4.8km/h 92% 0.01in /  0.2mm 0 W/m2
02:52 70.2 °F /  21.2 °C 67.5 °F /  19.7 °C 29.9in /  1010.8hPa ENE 0.9mph /  1.4km/h 6mph /  9.7km/h 91% 0.01in /  0.2mm 0 W/m2
02:57 70.2 °F /  21.2 °C 67.1 °F /  19.5 °C 29.9in /  1011.2hPa ESE 0.9mph /  1.4km/h 1mph /  1.6km/h 90% 0.01in /  0.2mm 0 W/m2
03:02 70.2 °F /  21.2 °C 67.5 °F /  19.7 °C 29.9in /  1010.8hPa WSW 2mph /  3.2km/h 4mph /  6.4km/h 91% 0.01in /  0.2mm 0 W/m2
03:07 70.2 °F /  21.2 °C 67.5 °F /  19.7 °C 29.9in /  1011.2hPa SW 0.9mph /  1.4km/h 3mph /  4.8km/h 91% 0.01in /  0.2mm 0 W/m2
03:12 70 °F /  21.1 °C 67.3 °F /  19.6 °C 29.9in /  1011.2hPa West 2mph /  3.2km/h 5mph /  8km/h 91% 0.01in /  0.2mm 0 W/m2
03:17 69.8 °F /  21 °C 66.7 °F /  19.3 °C 29.9in /  1011.2hPa West 4mph /  6.4km/h 7mph /  11.3km/h 90% 0.01in /  0.2mm 0 W/m2
03:22 70 °F /  21.1 °C 66.6 °F /  19.2 °C 29.9in /  1011.9hPa West 4mph /  6.4km/h 9mph /  14.5km/h 89% 0.01in /  0.2mm 0 W/m2
03:27 70.2 °F /  21.2 °C 66.4 °F /  19.1 °C 29.9in /  1011.9hPa WSW 4.9mph /  7.9km/h 9mph /  14.5km/h 88% 0.01in /  0.2mm 0 W/m2
03:32 70 °F /  21.1 °C 66.2 °F /  19 °C 29.9in /  1012.2hPa West 2mph /  3.2km/h 8mph /  12.9km/h 88% 0.02in /  0.5mm 0 W/m2
03:37 69.4 °F /  20.8 °C 66.4 °F /  19.1 °C 29.9in /  1012.9hPa WNW 4.9mph /  7.9km/h 12mph /  19.3km/h 90% 0.02in /  0.5mm 0 W/m2
03:42 69.3 °F /  20.7 °C 66.6 °F /  19.2 °C 29.9in /  1013.5hPa West 8.9mph /  14.3km/h 10mph /  16.1km/h 91% 0.02in /  0.5mm 0 W/m2
03:47 69.3 °F /  20.7 °C 66.6 °F /  19.2 °C 29.9in /  1013.5hPa WSW 4.9mph /  7.9km/h 8mph /  12.9km/h 91% 0.03in /  0.8mm 0 W/m2
03:52 69.3 °F /  20.7 °C 66.9 °F /  19.4 °C 29.9in /  1013.5hPa WNW 4mph /  6.4km/h 11mph /  17.7km/h 92% 0.05in /  1.3mm 0 W/m2
03:57 69.3 °F /  20.7 °C 66.9 °F /  19.4 °C 29.9in /  1013.5hPa West 4mph /  6.4km/h 7mph /  11.3km/h 92% 0.06in /  1.5mm 0 W/m2
04:02 69.1 °F /  20.6 °C 66.7 °F /  19.3 °C 29.9in /  1013.2hPa WNW 6.9mph /  11.1km/h 12mph /  19.3km/h 92% 0.07in /  1.8mm 0 W/m2
04:07 69.1 °F /  20.6 °C 66.7 °F /  19.3 °C 29.9in /  1013.2hPa WSW 4mph /  6.4km/h 8mph /  12.9km/h 92% 0.07in /  1.8mm 0 W/m2
04:12 69.1 °F /  20.6 °C 66.7 °F /  19.3 °C 29.9in /  1013.2hPa West 6.9mph /  11.1km/h 11mph /  17.7km/h 92% 0.07in /  1.8mm 0 W/m2
04:17 69.1 °F /  20.6 °C 66.9 °F /  19.4 °C 29.9in /  1013.2hPa West 2.9mph /  4.7km/h 8mph /  12.9km/h 93% 0.08in /  2.0mm 0 W/m2
04:22 69.1 °F /  20.6 °C 66.9 °F /  19.4 °C 29.9in /  1013.2hPa West 8.9mph /  14.3km/h 12mph /  19.3km/h 93% 0.08in /  2.0mm 0 W/m2
04:27 69.1 °F /  20.6 °C 66.9 °F /  19.4 °C 29.9in /  1013.2hPa West 2.9mph /  4.7km/h 9mph /  14.5km/h 93% 0.09in /  2.3mm 0 W/m2
04:32 69.1 °F /  20.6 °C 66.7 °F /  19.3 °C 29.9in /  1013.2hPa West 2.9mph /  4.7km/h 9mph /  14.5km/h 92% 0.07in /  1.8mm 0 W/m2
04:37 69.1 °F /  20.6 °C 66.7 °F /  19.3 °C 29.9in /  1013.5hPa WSW 6.9mph /  11.1km/h 14mph /  22.5km/h 92% 0.07in /  1.8mm 0 W/m2
04:42 69.3 °F /  20.7 °C 66.6 °F /  19.2 °C 29.9in /  1013.5hPa NW 10.1mph /  16.3km/h 14mph /  22.5km/h 91% 0.07in /  1.8mm 0 W/m2
04:47 69.1 °F /  20.6 °C 66.4 °F /  19.1 °C 29.9in /  1013.9hPa WNW 8.1mph /  13km/h 12mph /  19.3km/h 91% 0.06in /  1.5mm 0 W/m2
04:52 69.1 °F /  20.6 °C 66.4 °F /  19.1 °C 30in /  1014.2hPa WSW 10.1mph /  16.3km/h 15mph /  24.1km/h 91% 0.03in /  0.8mm 0 W/m2
04:57 68.7 °F /  20.4 °C 66 °F /  18.9 °C 29.9in /  1013.5hPa WSW 6.9mph /  11.1km/h 11mph /  17.7km/h 91% 0.06in /  1.5mm 0 W/m2
05:02 68.5 °F /  20.3 °C 66.2 °F /  19 °C 29.9in /  1013.5hPa WSW 6.9mph /  11.1km/h 8mph /  12.9km/h 92% 0.06in /  1.5mm 0 W/m2
05:07 68.4 °F /  20.2 °C 66 °F /  18.9 °C 29.9in /  1013.2hPa WSW 8.1mph /  13km/h 10mph /  16.1km/h 92% 0.07in /  1.8mm 0 W/m2
05:12 68.4 °F /  20.2 °C 66 °F /  18.9 °C 29.9in /  1012.9hPa WNW 4mph /  6.4km/h 8mph /  12.9km/h 92% 0.07in /  1.8mm 0 W/m2
05:17 68.2 °F /  20.1 °C 65.8 °F /  18.8 °C 29.9in /  1012.5hPa WNW 2.9mph /  4.7km/h 8mph /  12.9km/h 92% 0.06in /  1.5mm 0 W/m2
05:22 68.2 °F /  20.1 °C 65.8 °F /  18.8 °C 29.9in /  1012.5hPa WNW 2mph /  3.2km/h 4mph /  6.4km/h 92% 0.06in /  1.5mm 0 W/m2
05:27 67.8 °F /  19.9 °C 65.5 °F /  18.6 °C 29.9in /  1012.5hPa West 2.9mph /  4.7km/h 8mph /  12.9km/h 92% 0.06in /  1.5mm 0 W/m2
05:32 67.6 °F /  19.8 °C 65.3 °F /  18.5 °C 29.9in /  1012.5hPa West 2.9mph /  4.7km/h 7mph /  11.3km/h 92% 0.06in /  1.5mm 0 W/m2
05:37 67.6 °F /  19.8 °C 65.3 °F /  18.5 °C 29.9in /  1012.9hPa SW 0.9mph /  1.4km/h 5mph /  8km/h 92% 0.06in /  1.5mm 0 W/m2
05:42 67.6 °F /  19.8 °C 65.3 °F /  18.5 °C 29.9in /  1013.5hPa SW 2mph /  3.2km/h 7mph /  11.3km/h 92% 0.06in /  1.5mm 0 W/m2
05:47 67.5 °F /  19.7 °C 65.1 °F /  18.4 °C 29.9in /  1013.5hPa WSW 0.9mph /  1.4km/h 4mph /  6.4km/h 92% 0.06in /  1.5mm 0 W/m2
05:52 67.5 °F /  19.7 °C 65.1 °F /  18.4 °C 29.9in /  1013.2hPa SSE 2mph /  3.2km/h 3mph /  4.8km/h 92% 0.07in /  1.8mm 0 W/m2
05:57 67.5 °F /  19.7 °C 65.1 °F /  18.4 °C 29.9in /  1013.2hPa SSE 0.9mph /  1.4km/h 4mph /  6.4km/h 92% 0.03in /  0.8mm 0 W/m2
06:02 67.3 °F /  19.6 °C 65.1 °F /  18.4 °C 29.9in /  1013.2hPa Calm   1mph /  1.6km/h 93% 0.02in /  0.5mm 0 W/m2
06:07 67.3 °F /  19.6 °C 65.1 °F /  18.4 °C 29.9in /  1013.2hPa SE 0.9mph /  1.4km/h 3mph /  4.8km/h 93% 0.02in /  0.5mm 0 W/m2
06:12 67.5 °F /  19.7 °C 65.7 °F /  18.7 °C 29.9in /  1012.9hPa ESE 0.9mph /  1.4km/h 2mph /  3.2km/h 94% 0.02in /  0.5mm 0 W/m2
06:17 67.5 °F /  19.7 °C 65.7 °F /  18.7 °C 29.9in /  1012.9hPa Calm     94% 0.02in /  0.5mm 0 W/m2
06:22 67.3 °F /  19.6 °C 65.5 °F /  18.6 °C 29.9in /  1012.9hPa Calm     94% 0.02in /  0.5mm 0 W/m2
06:27 67.3 °F /  19.6 °C 65.5 °F /  18.6 °C 29.9in /  1012.2hPa East 0.9mph /  1.4km/h 2mph /  3.2km/h 94% 0.02in /  0.5mm 0 W/m2
06:32 67.3 °F /  19.6 °C 65.5 °F /  18.6 °C 29.9in /  1012.2hPa South 0.9mph /  1.4km/h 2mph /  3.2km/h 94% 0.02in /  0.5mm 5 W/m2
06:37 67.3 °F /  19.6 °C 65.5 °F /  18.6 °C 29.9in /  1012.2hPa Calm   1mph /  1.6km/h 94% 0.03in /  0.8mm 7 W/m2
06:42 67.3 °F /  19.6 °C 65.5 °F /  18.6 °C 29.9in /  1012.2hPa Calm   1mph /  1.6km/h 94% 0.03in /  0.8mm 7 W/m2
06:47 67.3 °F /  19.6 °C 65.5 °F /  18.6 °C 29.9in /  1012.2hPa Calm     94% 0.02in /  0.5mm 0 W/m2
06:52 67.3 °F /  19.6 °C 65.5 °F /  18.6 °C 29.9in /  1012.5hPa Calm     94% 0.02in /  0.5mm 0 W/m2
06:57 67.1 °F /  19.5 °C 65.3 °F /  18.5 °C 29.9in /  1012.5hPa Calm     94% 0.02in /  0.5mm 7 W/m2
07:02 67.1 °F /  19.5 °C 65.3 °F /  18.5 °C 29.9in /  1012.5hPa Calm     94% 0.02in /  0.5mm 9 W/m2
07:07 66.9 °F /  19.4 °C 65.1 °F /  18.4 °C 29.9in /  1012.5hPa South 0.9mph /  1.4km/h 2mph /  3.2km/h 94% 0.01in /  0.2mm 11 W/m2
07:12 66.7 °F /  19.3 °C 64.9 °F /  18.3 °C 29.9in /  1012.9hPa NNW 2mph /  3.2km/h 4mph /  6.4km/h 94% 0.01in /  0.2mm 9 W/m2
07:17 66.6 °F /  19.2 °C 64.8 °F /  18.2 °C 29.9in /  1012.9hPa NNW 0.9mph /  1.4km/h 2mph /  3.2km/h 94% 0.01in /  0.2mm 7 W/m2
07:22 66.6 °F /  19.2 °C 64.8 °F /  18.2 °C 29.9in /  1012.9hPa Calm   4mph /  6.4km/h 94% 0.01in /  0.2mm 7 W/m2
07:27 66.6 °F /  19.2 °C 64.8 °F /  18.2 °C 29.9in /  1012.9hPa NNW 0.9mph /  1.4km/h 1mph /  1.6km/h 94% 0.01in /  0.2mm 7 W/m2
07:32 66.6 °F /  19.2 °C 64.8 °F /  18.2 °C 29.9in /  1012.5hPa ESE 2mph /  3.2km/h 3mph /  4.8km/h 94% 0.02in /  0.5mm 7 W/m2
07:37 66.4 °F /  19.1 °C 64.2 °F /  17.9 °C 29.9in /  1012.5hPa WNW 2mph /  3.2km/h 3mph /  4.8km/h 93% 0.02in /  0.5mm 7 W/m2
07:42 66.2 °F /  19 °C 64 °F /  17.8 °C 29.9in /  1012.9hPa NW 0.9mph /  1.4km/h 2mph /  3.2km/h 93% 0.04in /  1.0mm 12 W/m2
07:47 66.4 °F /  19.1 °C 64 °F /  17.8 °C 29.9in /  1013.2hPa NW 4mph /  6.4km/h 6mph /  9.7km/h 92% 0.04in /  1.0mm 16 W/m2
07:52 66.6 °F /  19.2 °C 63.9 °F /  17.7 °C 29.9in /  1013.2hPa NW 0.9mph /  1.4km/h 6mph /  9.7km/h 91% 0.04in /  1.0mm 16 W/m2
07:57 66.7 °F /  19.3 °C 64 °F /  17.8 °C 29.9in /  1013.2hPa Calm   2mph /  3.2km/h 91% 0.04in /  1.0mm 14 W/m2
08:02 66.9 °F /  19.4 °C 63.9 °F /  17.7 °C 29.9in /  1013.5hPa NW 2.9mph /  4.7km/h 5mph /  8km/h 90% 0.05in /  1.3mm 11 W/m2
08:07 66.9 °F /  19.4 °C 63.5 °F /  17.5 °C 29.9in /  1013.5hPa West 2mph /  3.2km/h 9mph /  14.5km/h 89% 0.06in /  1.5mm 11 W/m2
08:12 67.3 °F /  19.6 °C 63.9 °F /  17.7 °C 29.9in /  1013.2hPa NNW 4mph /  6.4km/h 5mph /  8km/h 89% 0.06in /  1.5mm 11 W/m2
08:17 67.1 °F /  19.5 °C 63.7 °F /  17.6 °C 29.9in /  1013.5hPa West 4mph /  6.4km/h 5mph /  8km/h 89% 0.08in /  2.0mm 12 W/m2
08:22 66.9 °F /  19.4 °C 63.5 °F /  17.5 °C 29.9in /  1013.5hPa WNW 4.9mph /  7.9km/h 8mph /  12.9km/h 89% 0.09in /  2.3mm 14 W/m2
08:27 66.7 °F /  19.3 °C 63.3 °F /  17.4 °C 29.9in /  1012.9hPa West 2.9mph /  4.7km/h 7mph /  11.3km/h 89% 0.1in /  2.5mm 21 W/m2
08:32 66.6 °F /  19.2 °C 63.5 °F /  17.5 °C 29.9in /  1012.9hPa WSW 2mph /  3.2km/h 3mph /  4.8km/h 90% 0.09in /  2.3mm 26 W/m2
08:37 66.4 °F /  19.1 °C 63.3 °F /  17.4 °C 29.9in /  1012.9hPa West 2.9mph /  4.7km/h 6mph /  9.7km/h 90% 0.09in /  2.3mm 26 W/m2
08:42 66.2 °F /  19 °C 63.5 °F /  17.5 °C 29.9in /  1013.2hPa West 2.9mph /  4.7km/h 6mph /  9.7km/h 91% 0.07in /  1.8mm 28 W/m2
08:47 66 °F /  18.9 °C 63.3 °F /  17.4 °C 29.9in /  1013.2hPa SW 4mph /  6.4km/h 7mph /  11.3km/h 91% 0.09in /  2.3mm 30 W/m2
08:52 65.8 °F /  18.8 °C 63.5 °F /  17.5 °C 29.9in /  1013.2hPa WSW 10.1mph /  16.3km/h 10mph /  16.1km/h 92% 0.09in /  2.3mm 28 W/m2
08:58 65.8 °F /  18.8 °C 63.5 °F /  17.5 °C 29.9in /  1013.5hPa WNW 4mph /  6.4km/h 6mph /  9.7km/h 92% 0.09in /  2.3mm 30 W/m2
09:03 65.8 °F /  18.8 °C 63.5 °F /  17.5 °C 29.9in /  1013.5hPa West 0.9mph /  1.4km/h 10mph /  16.1km/h 92% 0.08in /  2.0mm 28 W/m2
09:08 65.8 °F /  18.8 °C 63.5 °F /  17.5 °C 29.9in /  1013.2hPa WNW 2.9mph /  4.7km/h 4mph /  6.4km/h 92% 0.07in /  1.8mm 25 W/m2
09:13 65.8 °F /  18.8 °C 63.5 °F /  17.5 °C 29.9in /  1013.5hPa WSW 2mph /  3.2km/h 4mph /  6.4km/h 92% 0.06in /  1.5mm 51 W/m2
09:18 65.8 °F /  18.8 °C 63.5 °F /  17.5 °C 29.9in /  1013.9hPa Calm   4mph /  6.4km/h 92% 0.05in /  1.3mm 40 W/m2
09:23 65.8 °F /  18.8 °C 63.5 °F /  17.5 °C 29.9in /  1013.9hPa WNW 2mph /  3.2km/h 4mph /  6.4km/h 92% 0.04in /  1.0mm 26 W/m2
09:28 65.8 °F /  18.8 °C 63.5 °F /  17.5 °C 29.9in /  1013.5hPa West 2.9mph /  4.7km/h 6mph /  9.7km/h 92% 0.03in /  0.8mm 21 W/m2
09:33 65.8 °F /  18.8 °C 63.5 °F /  17.5 °C 29.9in /  1012.9hPa SE 2.9mph /  4.7km/h 3mph /  4.8km/h 92% 0.02in /  0.5mm 35 W/m2
09:38 65.8 °F /  18.8 °C 63.7 °F /  17.6 °C 29.9in /  1013.5hPa WNW 2.9mph /  4.7km/h 4mph /  6.4km/h 93% 0.03in /  0.8mm 46 W/m2
09:43 65.8 °F /  18.8 °C 63.7 °F /  17.6 °C 29.9in /  1013.2hPa West 2mph /  3.2km/h 4mph /  6.4km/h 93% 0.02in /  0.5mm 69 W/m2
09:48 65.8 °F /  18.8 °C 63.7 °F /  17.6 °C 30in /  1014.2hPa West 4mph /  6.4km/h 7mph /  11.3km/h 93% 0.02in /  0.5mm 67 W/m2
09:53 65.7 °F /  18.7 °C 63.5 °F /  17.5 °C 30in /  1014.2hPa West 2mph /  3.2km/h 7mph /  11.3km/h 93% 0.02in /  0.5mm 65 W/m2
09:58 65.7 °F /  18.7 °C 63.5 °F /  17.5 °C 30in /  1014.6hPa NW 4mph /  6.4km/h 6mph /  9.7km/h 93% 0.02in /  0.5mm 58 W/m2
10:03 65.7 °F /  18.7 °C 63.5 °F /  17.5 °C 30in /  1014.2hPa WSW 2.9mph /  4.7km/h 4mph /  6.4km/h 93% 0.02in /  0.5mm 107 W/m2
10:08 65.8 °F /  18.8 °C 63.7 °F /  17.6 °C 30in /  1014.2hPa NW 2mph /  3.2km/h 3mph /  4.8km/h 93% 0.02in /  0.5mm 111 W/m2
10:13 65.8 °F /  18.8 °C 63.7 °F /  17.6 °C 30in /  1014.2hPa West 0.9mph /  1.4km/h 2mph /  3.2km/h 93% 0.02in /  0.5mm 163 W/m2
10:18 66 °F /  18.9 °C 63.9 °F /  17.7 °C 30in /  1014.2hPa ESE 0.9mph /  1.4km/h 3mph /  4.8km/h 93% 0.02in /  0.5mm 137 W/m2
10:23 66 °F /  18.9 °C 63.9 °F /  17.7 °C 30in /  1014.6hPa Calm     93% 0.02in /  0.5mm 137 W/m2
10:28 66.4 °F /  19.1 °C 64.2 °F /  17.9 °C 30in /  1014.9hPa Calm   1mph /  1.6km/h 93% 0.02in /  0.5mm 121 W/m2
10:33 66.6 °F /  19.2 °C 64.4 °F /  18 °C 30in /  1014.9hPa SW 2mph /  3.2km/h 3mph /  4.8km/h 93% 0.02in /  0.5mm 79 W/m2
10:38 66.4 °F /  19.1 °C 64.2 °F /  17.9 °C 30in /  1014.9hPa NW 2mph /  3.2km/h 2mph /  3.2km/h 93% 0.02in /  0.5mm 69 W/m2
10:43 66.6 °F /  19.2 °C 64.4 °F /  18 °C 30in /  1014.9hPa NW 2.9mph /  4.7km/h 6mph /  9.7km/h 93% 0.02in /  0.5mm 86 W/m2
10:48 66.6 °F /  19.2 °C 64.4 °F /  18 °C 30in /  1014.9hPa West 2.9mph /  4.7km/h 7mph /  11.3km/h 93% 0.02in /  0.5mm 123 W/m2
10:53 66.6 °F /  19.2 °C 64.4 °F /  18 °C 30in /  1014.9hPa WSW 2.9mph /  4.7km/h 7mph /  11.3km/h 93% 0.02in /  0.5mm 127 W/m2
10:58 66.6 °F /  19.2 °C 64.4 °F /  18 °C 30in /  1014.9hPa WNW 4mph /  6.4km/h 4mph /  6.4km/h 93% 0.02in /  0.5mm 156 W/m2
11:03 66.7 °F /  19.3 °C 64.6 °F /  18.1 °C 30in /  1014.6hPa NW 0.9mph /  1.4km/h 6mph /  9.7km/h 93% 0.01in /  0.2mm 167 W/m2
11:08 66.9 °F /  19.4 °C 64.8 °F /  18.2 °C 30in /  1014.6hPa West 6mph /  9.7km/h 7mph /  11.3km/h 93% 0.01in /  0.2mm 193 W/m2
11:13 66.9 °F /  19.4 °C 64.8 °F /  18.2 °C 30in /  1014.6hPa West 0.9mph /  1.4km/h 4mph /  6.4km/h 93% 0.01in /  0.2mm 283 W/m2
11:18 67.3 °F /  19.6 °C 65.1 °F /  18.4 °C 30in /  1014.6hPa North 4.9mph /  7.9km/h 7mph /  11.3km/h 93% 0.01in /  0.2mm 408 W/m2
11:23 67.6 °F /  19.8 °C 65.5 °F /  18.6 °C 30in /  1014.9hPa West 8.1mph /  13km/h 8mph /  12.9km/h 93% 0.02in /  0.5mm 598 W/m2
11:28 67.8 °F /  19.9 °C 65.7 °F /  18.7 °C 30in /  1014.9hPa Calm   4mph /  6.4km/h 93% 0.02in /  0.5mm 218 W/m2
11:33 68 °F /  20 °C 65.7 °F /  18.7 °C 30in /  1014.9hPa SSW 0.9mph /  1.4km/h 3mph /  4.8km/h 92% 0.02in /  0.5mm 167 W/m2
11:38 68.2 °F /  20.1 °C 65.5 °F /  18.6 °C 30in /  1015.2hPa West 2mph /  3.2km/h 3mph /  4.8km/h 91% 0.01in /  0.2mm 162 W/m2
11:43 68.2 °F /  20.1 °C 65.5 °F /  18.6 °C 30in /  1015.2hPa WSW 2.9mph /  4.7km/h 3mph /  4.8km/h 91% 0.01in /  0.2mm 207 W/m2
11:48 68.2 °F /  20.1 °C 65.5 °F /  18.6 °C 30in /  1015.2hPa SW 2mph /  3.2km/h 5mph /  8km/h 91% 0.01in /  0.2mm 237 W/m2
11:53 68.4 °F /  20.2 °C 65.7 °F /  18.7 °C 30in /  1015.2hPa WSW 4.9mph /  7.9km/h 9mph /  14.5km/h 91% 0.01in /  0.2mm 260 W/m2
11:58 68.4 °F /  20.2 °C 65.7 °F /  18.7 °C 30in /  1015.2hPa WNW 0.9mph /  1.4km/h 7mph /  11.3km/h 91% 0.01in /  0.2mm 338 W/m2
12:03 68.5 °F /  20.3 °C 65.5 °F /  18.6 °C 30in /  1015.2hPa SSW 2.9mph /  4.7km/h 9mph /  14.5km/h 90% 0.01in /  0.2mm 443 W/m2
12:08 68.7 °F /  20.4 °C 65.7 °F /  18.7 °C 30in /  1015.2hPa WNW 4mph /  6.4km/h 7mph /  11.3km/h 90% 0.01in /  0.2mm 197 W/m2
12:13 68.7 °F /  20.4 °C 65.3 °F /  18.5 °C 30in /  1015.2hPa WNW 0.9mph /  1.4km/h 9mph /  14.5km/h 89% 0.01in /  0.2mm 278 W/m2
12:18 68.9 °F /  20.5 °C 65.5 °F /  18.6 °C 30in /  1015.2hPa West 2.9mph /  4.7km/h 6mph /  9.7km/h 89% 0.01in /  0.2mm 418 W/m2
12:23 69.1 °F /  20.6 °C 65.7 °F /  18.7 °C 30in /  1015.2hPa WSW 6mph /  9.7km/h 6mph /  9.7km/h 89% 0in /  0.0mm 329 W/m2
12:28 69.3 °F /  20.7 °C 65.5 °F /  18.6 °C 30in /  1015.2hPa West 6.9mph /  11.1km/h 10mph /  16.1km/h 88% 0in /  0.0mm 392 W/m2
12:33 69.4 °F /  20.8 °C 65.7 °F /  18.7 °C 30in /  1015.2hPa West 0.9mph /  1.4km/h 7mph /  11.3km/h 88% 0in /  0.0mm 513 W/m2
12:38 70 °F /  21.1 °C 66.2 °F /  19 °C 30in /  1015.2hPa WNW 2mph /  3.2km/h 10mph /  16.1km/h 88% 0in /  0.0mm 257 W/m2
12:43 70 °F /  21.1 °C 66 °F /  18.9 °C 30in /  1015.2hPa WSW 6.9mph /  11.1km/h 8mph /  12.9km/h 87% 0in /  0.0mm 410 W/m2
12:48 69.8 °F /  21 °C 65.5 °F /  18.6 °C 30in /  1015.2hPa West 4mph /  6.4km/h 9mph /  14.5km/h 86% 0in /  0.0mm 285 W/m2
12:53 70 °F /  21.1 °C 65.7 °F /  18.7 °C 30in /  1015.2hPa WNW 6.9mph /  11.1km/h 9mph /  14.5km/h 86% 0in /  0.0mm 241 W/m2
12:58 70.2 °F /  21.2 °C 65.5 °F /  18.6 °C 30in /  1015.2hPa NW 4mph /  6.4km/h 9mph /  14.5km/h 85% 0in /  0.0mm 104 W/m2
13:03 70 °F /  21.1 °C 65.7 °F /  18.7 °C 30in /  1015.6hPa NW 4mph /  6.4km/h 8mph /  12.9km/h 86% 0in /  0.0mm 86 W/m2
13:08 69.4 °F /  20.8 °C 65.1 °F /  18.4 °C 30in /  1015.6hPa WSW 6.9mph /  11.1km/h 7mph /  11.3km/h 86% 0in /  0.0mm 79 W/m2
13:13 69.1 °F /  20.6 °C 64.8 °F /  18.2 °C 30in /  1015.6hPa WNW 2mph /  3.2km/h 6mph /  9.7km/h 86% 0in /  0.0mm 100 W/m2
13:18 68.9 °F /  20.5 °C 64.9 °F /  18.3 °C 30in /  1015.6hPa West 6mph /  9.7km/h 7mph /  11.3km/h 87% 0in /  0.0mm 130 W/m2
13:23 68.9 °F /  20.5 °C 64.9 °F /  18.3 °C 30in /  1015.6hPa West 0.9mph /  1.4km/h 4mph /  6.4km/h 87% 0in /  0.0mm 86 W/m2
13:28 68.9 °F /  20.5 °C 65.1 °F /  18.4 °C 30in /  1016.3hPa WSW 4mph /  6.4km/h 7mph /  11.3km/h 88% 0in /  0.0mm 70 W/m2
13:33 68.7 °F /  20.4 °C 64.9 °F /  18.3 °C 30in /  1016.3hPa West 0.9mph /  1.4km/h 9mph /  14.5km/h 88% 0in /  0.0mm 72 W/m2
13:38 68.5 °F /  20.3 °C 64.8 °F /  18.2 °C 30in /  1015.9hPa ESE 0.9mph /  1.4km/h 3mph /  4.8km/h 88% 0in /  0.0mm 165 W/m2
13:43 68.7 °F /  20.4 °C 65.3 °F /  18.5 °C 30in /  1015.9hPa WSW 2mph /  3.2km/h 9mph /  14.5km/h 89% 0in /  0.0mm 292 W/m2
13:48 69.3 °F /  20.7 °C 65.5 °F /  18.6 °C 30in /  1015.9hPa West 6mph /  9.7km/h 6mph /  9.7km/h 88% 0in /  0.0mm 443 W/m2
13:53 69.8 °F /  21 °C 65.8 °F /  18.8 °C 30in /  1015.6hPa WNW 8.1mph /  13km/h 9mph /  14.5km/h 87% 0in /  0.0mm 236 W/m2
13:58 70.2 °F /  21.2 °C 65.8 °F /  18.8 °C 30in /  1015.6hPa West 6mph /  9.7km/h 7mph /  11.3km/h 86% 0in /  0.0mm 244 W/m2
14:03 70.5 °F /  21.4 °C 66.2 °F /  19 °C 30in /  1015.6hPa WSW 2mph /  3.2km/h 4mph /  6.4km/h 86% 0in /  0.0mm 436 W/m2
14:08 71.1 °F /  21.7 °C 66.4 °F /  19.1 °C 30in /  1015.9hPa West 2mph /  3.2km/h 4mph /  6.4km/h 85% 0in /  0.0mm 364 W/m2
14:13 71.4 °F /  21.9 °C 66.7 °F /  19.3 °C 30in /  1015.9hPa WNW 2.9mph /  4.7km/h 3mph /  4.8km/h 85% 0in /  0.0mm 250 W/m2
14:18 71.8 °F /  22.1 °C 66.7 °F /  19.3 °C 30in /  1015.9hPa West 2.9mph /  4.7km/h 6mph /  9.7km/h 84% 0in /  0.0mm 329 W/m2
14:23 72 °F /  22.2 °C 66.6 °F /  19.2 °C 30in /  1015.9hPa NW 2.9mph /  4.7km/h 4mph /  6.4km/h 83% 0in /  0.0mm 420 W/m2
14:28 72.3 °F /  22.4 °C 66.9 °F /  19.4 °C 30in /  1015.9hPa West 2.9mph /  4.7km/h 3mph /  4.8km/h 83% 0in /  0.0mm 362 W/m2
14:33 72.9 °F /  22.7 °C 67.1 °F /  19.5 °C 30in /  1015.9hPa WNW 4mph /  6.4km/h 7mph /  11.3km/h 82% 0in /  0.0mm 524 W/m2
14:38 73.2 °F /  22.9 °C 67.5 °F /  19.7 °C 30in /  1015.9hPa West 0.9mph /  1.4km/h 4mph /  6.4km/h 82% 0in /  0.0mm 359 W/m2
14:43 73.6 °F /  23.1 °C 67.1 °F /  19.5 °C 30in /  1015.9hPa NW 4mph /  6.4km/h 8mph /  12.9km/h 80% 0in /  0.0mm 371 W/m2
14:48 73.8 °F /  23.2 °C 66.4 °F /  19.1 °C 30in /  1015.9hPa West 2.9mph /  4.7km/h 7mph /  11.3km/h 78% 0in /  0.0mm 911 W/m2
14:53 74.1 °F /  23.4 °C 66.7 °F /  19.3 °C 30in /  1015.9hPa WNW 8.9mph /  14.3km/h 9mph /  14.5km/h 78% 0in /  0.0mm 366 W/m2
14:58 73.9 °F /  23.3 °C 66.2 °F /  19 °C 30in /  1015.9hPa West 2.9mph /  4.7km/h 7mph /  11.3km/h 77% 0in /  0.0mm 378 W/m2
15:03 73.8 °F /  23.2 °C 66 °F /  18.9 °C 30in /  1015.9hPa West 6.9mph /  11.1km/h 9mph /  14.5km/h 77% 0in /  0.0mm 311 W/m2
15:08 73.6 °F /  23.1 °C 66.4 °F /  19.1 °C 30in /  1016.3hPa West 2.9mph /  4.7km/h 8mph /  12.9km/h 78% 0in /  0.0mm 265 W/m2
15:13 73.8 °F /  23.2 °C 66 °F /  18.9 °C 30in /  1016.3hPa WSW 4mph /  6.4km/h 4mph /  6.4km/h 77% 0in /  0.0mm 302 W/m2
15:18 73.9 °F /  23.3 °C 66.2 °F /  19 °C 30in /  1016.3hPa West 0.9mph /  1.4km/h 6mph /  9.7km/h 77% 0in /  0.0mm 341 W/m2
15:23 74.1 °F /  23.4 °C 66.7 °F /  19.3 °C 30in /  1015.9hPa North 4mph /  6.4km/h 7mph /  11.3km/h 78% 0in /  0.0mm 700 W/m2
15:28 74.7 °F /  23.7 °C 66.9 °F /  19.4 °C 30in /  1015.9hPa WNW 2.9mph /  4.7km/h 7mph /  11.3km/h 77% 0in /  0.0mm 424 W/m2
15:33 74.8 °F /  23.8 °C 66.4 °F /  19.1 °C 30in /  1015.9hPa NW 6mph /  9.7km/h 8mph /  12.9km/h 75% 0in /  0.0mm 336 W/m2
15:38 74.7 °F /  23.7 °C 65.5 °F /  18.6 °C 30in /  1015.9hPa West 0.9mph /  1.4km/h 9mph /  14.5km/h 73% 0in /  0.0mm 297 W/m2
15:43 74.8 °F /  23.8 °C 66 °F /  18.9 °C 30in /  1015.9hPa WNW 2mph /  3.2km/h 7mph /  11.3km/h 74% 0in /  0.0mm 269 W/m2
15:48 74.8 °F /  23.8 °C 66.4 °F /  19.1 °C 30in /  1015.9hPa West 4mph /  6.4km/h 9mph /  14.5km/h 75% 0in /  0.0mm 288 W/m2
15:53 74.8 °F /  23.8 °C 66 °F /  18.9 °C 30in /  1015.9hPa West 4mph /  6.4km/h 7mph /  11.3km/h 74% 0in /  0.0mm 279 W/m2
15:58 74.8 °F /  23.8 °C 66.4 °F /  19.1 °C 30in /  1015.9hPa WNW 2mph /  3.2km/h 4mph /  6.4km/h 75% 0in /  0.0mm 418 W/m2
16:03 75 °F /  23.9 °C 66.2 °F /  19 °C 30in /  1015.9hPa West 2mph /  3.2km/h 4mph /  6.4km/h 74% 0in /  0.0mm 218 W/m2
16:08 75.4 °F /  24.1 °C 66.9 °F /  19.4 °C 30in /  1016.3hPa NW 2.9mph /  4.7km/h 3mph /  4.8km/h 75% 0in /  0.0mm 272 W/m2
16:13 75.6 °F /  24.2 °C 66.7 °F /  19.3 °C 30in /  1015.9hPa Calm   3mph /  4.8km/h 74% 0in /  0.0mm 232 W/m2
16:18 75.6 °F /  24.2 °C 66.7 °F /  19.3 °C 30in /  1015.9hPa NW 0.9mph /  1.4km/h 1mph /  1.6km/h 74% 0in /  0.0mm 267 W/m2
16:23 75.9 °F /  24.4 °C 66.6 °F /  19.2 °C 30in /  1016.3hPa Calm   3mph /  4.8km/h 73% 0in /  0.0mm 264 W/m2
16:28 76.3 °F /  24.6 °C 66.9 °F /  19.4 °C 30in /  1015.9hPa Calm   2mph /  3.2km/h 73% 0in /  0.0mm 241 W/m2
16:33 76.3 °F /  24.6 °C 64.9 °F /  18.3 °C 30in /  1015.9hPa North 6mph /  9.7km/h 8mph /  12.9km/h 68% 0in /  0.0mm 206 W/m2
16:38 76.5 °F /  24.7 °C 62.4 °F /  16.9 °C 30in /  1016.3hPa WNW 4mph /  6.4km/h 10mph /  16.1km/h 62% 0in /  0.0mm 186 W/m2
16:43 76.6 °F /  24.8 °C 62.2 °F /  16.8 °C 30in /  1016.3hPa West 4mph /  6.4km/h 6mph /  9.7km/h 61% 0in /  0.0mm 239 W/m2
16:48 76.6 °F /  24.8 °C 62.6 °F /  17 °C 30in /  1016.3hPa NW 2mph /  3.2km/h 4mph /  6.4km/h 62% 0in /  0.0mm 299 W/m2
16:54 76.8 °F /  24.9 °C 62.8 °F /  17.1 °C 30in /  1016.3hPa North 2.9mph /  4.7km/h 7mph /  11.3km/h 62% 0in /  0.0mm 214 W/m2
16:59 76.8 °F /  24.9 °C 61.9 °F /  16.6 °C 30in /  1016.3hPa WNW 4mph /  6.4km/h 10mph /  16.1km/h 60% 0in /  0.0mm 497 W/m2
17:04 76.6 °F /  24.8 °C 62.2 °F /  16.8 °C 30in /  1016.3hPa NW 2mph /  3.2km/h 9mph /  14.5km/h 61% 0in /  0.0mm 253 W/m2
17:09 76.3 °F /  24.6 °C 61.9 °F /  16.6 °C 30in /  1016.3hPa WNW 2mph /  3.2km/h 7mph /  11.3km/h 61% 0in /  0.0mm 200 W/m2
17:14 76.3 °F /  24.6 °C 62.2 °F /  16.8 °C 30in /  1016.3hPa NW 2mph /  3.2km/h 9mph /  14.5km/h 62% 0in /  0.0mm 234 W/m2
17:19 76.3 °F /  24.6 °C 61.9 °F /  16.6 °C 30in /  1016.3hPa NNW 4.9mph /  7.9km/h 6mph /  9.7km/h 61% 0in /  0.0mm 149 W/m2
17:24 76.3 °F /  24.6 °C 61.9 °F /  16.6 °C 30in /  1016.3hPa WNW 6mph /  9.7km/h 6mph /  9.7km/h 61% 0in /  0.0mm 171 W/m2
17:29 76.3 °F /  24.6 °C 61.9 °F /  16.6 °C 30in /  1016.3hPa Calm   2mph /  3.2km/h 61% 0in /  0.0mm 178 W/m2
17:34 76.3 °F /  24.6 °C 61.3 °F /  16.3 °C 30in /  1016.3hPa North 2.9mph /  4.7km/h 4mph /  6.4km/h 60% 0in /  0.0mm 200 W/m2
17:39 76.3 °F /  24.6 °C 60.4 °F /  15.8 °C 30in /  1016.3hPa NNW 0.9mph /  1.4km/h 8mph /  12.9km/h 58% 0in /  0.0mm 186 W/m2
17:44 76.3 °F /  24.6 °C 60.4 °F /  15.8 °C 30in /  1016.3hPa NW 2.9mph /  4.7km/h 3mph /  4.8km/h 58% 0in /  0.0mm 141 W/m2
17:49 76.1 °F /  24.5 °C 60.3 °F /  15.7 °C 30in /  1016.3hPa NW 4.9mph /  7.9km/h 9mph /  14.5km/h 58% 0in /  0.0mm 190 W/m2
17:54 76.1 °F /  24.5 °C 60.3 °F /  15.7 °C 30in /  1016.3hPa Calm   4mph /  6.4km/h 58% 0in /  0.0mm 185 W/m2
17:59 76.3 °F /  24.6 °C 59.9 °F /  15.5 °C 30in /  1016.3hPa NE 2mph /  3.2km/h 9mph /  14.5km/h 57% 0in /  0.0mm 135 W/m2
18:04 76.3 °F /  24.6 °C 59.9 °F /  15.5 °C 30in /  1016.6hPa NNW 4.9mph /  7.9km/h 8mph /  12.9km/h 57% 0in /  0.0mm 134 W/m2
18:09 76.6 °F /  24.8 °C 59.7 °F /  15.4 °C 30in /  1016.6hPa North 2mph /  3.2km/h 8mph /  12.9km/h 56% 0in /  0.0mm 524 W/m2
18:14 76.8 °F /  24.9 °C 59.9 °F /  15.5 °C 30in /  1016.6hPa NNW 2mph /  3.2km/h 8mph /  12.9km/h 56% 0in /  0.0mm 524 W/m2
18:19 76.8 °F /  24.9 °C 59 °F /  15 °C 30in /  1016.6hPa NW 4.9mph /  7.9km/h 5mph /  8km/h 54% 0in /  0.0mm 304 W/m2
18:24 76.8 °F /  24.9 °C 59 °F /  15 °C 30in /  1016.9hPa West 2mph /  3.2km/h 3mph /  4.8km/h 54% 0in /  0.0mm 350 W/m2
18:29 77.2 °F /  25.1 °C 59.7 °F /  15.4 °C 30in /  1016.6hPa NNW 0.9mph /  1.4km/h 7mph /  11.3km/h 55% 0in /  0.0mm 306 W/m2
18:34 77.5 °F /  25.3 °C 59.5 °F /  15.3 °C 30in /  1016.9hPa NW 4mph /  6.4km/h 6mph /  9.7km/h 54% 0in /  0.0mm 316 W/m2
18:39 77.7 °F /  25.4 °C 59.2 °F /  15.1 °C 30in /  1016.9hPa NW 0.9mph /  1.4km/h 2mph /  3.2km/h 53% 0in /  0.0mm 318 W/m2
18:44 77.9 °F /  25.5 °C 59.4 °F /  15.2 °C 30in /  1016.9hPa SE 2mph /  3.2km/h 4mph /  6.4km/h 53% 0in /  0.0mm 330 W/m2
18:49 78.1 °F /  25.6 °C 59.5 °F /  15.3 °C 30in /  1016.9hPa SE 2mph /  3.2km/h 5mph /  8km/h 53% 0in /  0.0mm 325 W/m2
18:54 78.1 °F /  25.6 °C 57.9 °F /  14.4 °C 30in /  1016.9hPa NW 2mph /  3.2km/h 6mph /  9.7km/h 50% 0in /  0.0mm 290 W/m2
18:59 77.5 °F /  25.3 °C 57.9 °F /  14.4 °C 30in /  1016.9hPa West 8.9mph /  14.3km/h 9mph /  14.5km/h 51% 0in /  0.0mm 77 W/m2
19:04 77.2 °F /  25.1 °C 57.7 °F /  14.3 °C 30in /  1016.9hPa NW 2.9mph /  4.7km/h 6mph /  9.7km/h 51% 0in /  0.0mm 120 W/m2
19:09 77.2 °F /  25.1 °C 57.7 °F /  14.3 °C 30in /  1016.9hPa Calm   4mph /  6.4km/h 51% 0in /  0.0mm 90 W/m2
19:14 77.5 °F /  25.3 °C 57.9 °F /  14.4 °C 30in /  1016.9hPa Calm   2mph /  3.2km/h 51% 0in /  0.0mm 84 W/m2
19:19 77.7 °F /  25.4 °C 58.1 °F /  14.5 °C 30in /  1017.3hPa NNW 4mph /  6.4km/h 4mph /  6.4km/h 51% 0in /  0.0mm 60 W/m2
19:24 77.2 °F /  25.1 °C 57 °F /  13.9 °C 30in /  1017.3hPa West 4mph /  6.4km/h 8mph /  12.9km/h 50% 0in /  0.0mm 62 W/m2
19:29 76.6 °F /  24.8 °C 57.2 °F /  14 °C 30in /  1016.9hPa WNW 0.9mph /  1.4km/h 4mph /  6.4km/h 51% 0in /  0.0mm 83 W/m2
19:34 76.6 °F /  24.8 °C 57.2 °F /  14 °C 30in /  1017.3hPa SW 2.9mph /  4.7km/h 8mph /  12.9km/h 51% 0in /  0.0mm 77 W/m2
19:39 76.6 °F /  24.8 °C 57.2 °F /  14 °C 30in /  1017.3hPa WNW 2mph /  3.2km/h 10mph /  16.1km/h 51% 0in /  0.0mm 76 W/m2
19:44 76.6 °F /  24.8 °C 57.7 °F /  14.3 °C 30in /  1017.3hPa NNW 2mph /  3.2km/h 6mph /  9.7km/h 52% 0in /  0.0mm 62 W/m2
19:49 76.3 °F /  24.6 °C 57.4 °F /  14.1 °C 30in /  1017.3hPa West 2.9mph /  4.7km/h 10mph /  16.1km/h 52% 0in /  0.0mm 62 W/m2
19:54 75.9 °F /  24.4 °C 57.6 °F /  14.2 °C 30in /  1017.3hPa West 8.1mph /  13km/h 9mph /  14.5km/h 53% 0in /  0.0mm 54 W/m2
19:59 75.6 °F /  24.2 °C 57.2 °F /  14 °C 30.1in /  1017.6hPa WNW 2mph /  3.2km/h 10mph /  16.1km/h 53% 0in /  0.0mm 49 W/m2
20:04 75.2 °F /  24 °C 57.4 °F /  14.1 °C 30.1in /  1017.6hPa West 6.9mph /  11.1km/h 9mph /  14.5km/h 54% 0in /  0.0mm 46 W/m2
20:09 74.8 °F /  23.8 °C 57.6 °F /  14.2 °C 30.1in /  1017.6hPa NW 4.9mph /  7.9km/h 9mph /  14.5km/h 55% 0in /  0.0mm 40 W/m2
20:14 74.5 °F /  23.6 °C 57.7 °F /  14.3 °C 30.1in /  1017.6hPa West 6.9mph /  11.1km/h 10mph /  16.1km/h 56% 0in /  0.0mm 37 W/m2
20:19 74.1 °F /  23.4 °C 57.4 °F /  14.1 °C 30.1in /  1018.0hPa WSW 4.9mph /  7.9km/h 9mph /  14.5km/h 56% 0in /  0.0mm 33 W/m2
20:24 73.9 °F /  23.3 °C 57.7 °F /  14.3 °C 30.1in /  1018.0hPa WNW 10.1mph /  16.3km/h 10mph /  16.1km/h 57% 0in /  0.0mm 30 W/m2
20:29 73.8 °F /  23.2 °C 58.1 °F /  14.5 °C 30.1in /  1018.0hPa WNW 8.1mph /  13km/h 8mph /  12.9km/h 58% 0in /  0.0mm 28 W/m2
20:34 73.4 °F /  23 °C 57.7 °F /  14.3 °C 30.1in /  1018.0hPa NNW 4mph /  6.4km/h 9mph /  14.5km/h 58% 0in /  0.0mm 28 W/m2
20:39 73 °F /  22.8 °C 57.4 °F /  14.1 °C 30.1in /  1018.3hPa WNW 2.9mph /  4.7km/h 6mph /  9.7km/h 58% 0in /  0.0mm 28 W/m2
20:44 72.9 °F /  22.7 °C 57.7 °F /  14.3 °C 30.1in /  1018.3hPa West 6mph /  9.7km/h 8mph /  12.9km/h 59% 0in /  0.0mm 25 W/m2
20:49 72.7 °F /  22.6 °C 57.6 °F /  14.2 °C 30.1in /  1018.3hPa Calm   2mph /  3.2km/h 59% 0in /  0.0mm 19 W/m2
20:54 72.3 °F /  22.4 °C 57.2 °F /  14 °C 30.1in /  1018.3hPa WNW 4mph /  6.4km/h 8mph /  12.9km/h 59% 0in /  0.0mm 14 W/m2
20:59 72.1 °F /  22.3 °C 57 °F /  13.9 °C 30.1in /  1018.3hPa NW 2.9mph /  4.7km/h 6mph /  9.7km/h 59% 0in /  0.0mm 12 W/m2
21:04 72 °F /  22.2 °C 56.8 °F /  13.8 °C 30.1in /  1018.6hPa WSW 2mph /  3.2km/h 7mph /  11.3km/h 59% 0in /  0.0mm 9 W/m2
21:09 71.6 °F /  22 °C 56.5 °F /  13.6 °C 30.1in /  1018.6hPa West 0.9mph /  1.4km/h 9mph /  14.5km/h 59% 0in /  0.0mm 7 W/m2
21:14 71.2 °F /  21.8 °C 56.1 °F /  13.4 °C 30.1in /  1019.0hPa NW 8.9mph /  14.3km/h 9mph /  14.5km/h 59% 0in /  0.0mm 5 W/m2
21:19 71.1 °F /  21.7 °C 55.9 °F /  13.3 °C 30.1in /  1019.0hPa NW 4.9mph /  7.9km/h 9mph /  14.5km/h 59% 0in /  0.0mm 5 W/m2
21:24 70.9 °F /  21.6 °C 56.3 °F /  13.5 °C 30.1in /  1019.0hPa WNW 4mph /  6.4km/h 7mph /  11.3km/h 60% 0in /  0.0mm 0 W/m2
21:29 70.7 °F /  21.5 °C 56.7 °F /  13.7 °C 30.1in /  1019.3hPa WNW 6.9mph /  11.1km/h 7mph /  11.3km/h 61% 0in /  0.0mm 0 W/m2
21:34 70.5 °F /  21.4 °C 56.5 °F /  13.6 °C 30.1in /  1019.3hPa Calm   4mph /  6.4km/h 61% 0in /  0.0mm 0 W/m2
21:39 70.3 °F /  21.3 °C 56.7 °F /  13.7 °C 30.1in /  1019.3hPa WSW 0.9mph /  1.4km/h 7mph /  11.3km/h 62% 0in /  0.0mm 0 W/m2
21:44 70.2 °F /  21.2 °C 56.5 °F /  13.6 °C 30.1in /  1019.6hPa WNW 2.9mph /  4.7km/h 3mph /  4.8km/h 62% 0in /  0.0mm 0 W/m2
21:49 70.2 °F /  21.2 °C 57 °F /  13.9 °C 30.1in /  1019.6hPa NNW 2mph /  3.2km/h 4mph /  6.4km/h 63% 0in /  0.0mm 0 W/m2
21:54 69.8 °F /  21 °C 56.7 °F /  13.7 °C 30.1in /  1019.6hPa NE 2.9mph /  4.7km/h 7mph /  11.3km/h 63% 0in /  0.0mm 0 W/m2
21:59 69.6 °F /  20.9 °C 56.5 °F /  13.6 °C 30.1in /  1020.0hPa North 2mph /  3.2km/h 4mph /  6.4km/h 63% 0in /  0.0mm 0 W/m2
22:04 69.4 °F /  20.8 °C 56.7 °F /  13.7 °C 30.1in /  1020.0hPa NNE 0.9mph /  1.4km/h 4mph /  6.4km/h 64% 0in /  0.0mm 0 W/m2
22:09 69.3 °F /  20.7 °C 56.5 °F /  13.6 °C 30.1in /  1020.0hPa North 4.9mph /  7.9km/h 5mph /  8km/h 64% 0in /  0.0mm 0 W/m2
22:14 69.1 °F /  20.6 °C 56.8 °F /  13.8 °C 30.1in /  1020.0hPa NW 0.9mph /  1.4km/h 2mph /  3.2km/h 65% 0in /  0.0mm 0 W/m2
22:19 68.7 °F /  20.4 °C 56.5 °F /  13.6 °C 30.1in /  1020.3hPa WNW 2mph /  3.2km/h 2mph /  3.2km/h 65% 0in /  0.0mm 0 W/m2
22:24 68.5 °F /  20.3 °C 56.3 °F /  13.5 °C 30.1in /  1020.3hPa WNW 0.9mph /  1.4km/h 2mph /  3.2km/h 65% 0in /  0.0mm 0 W/m2
22:29 68.5 °F /  20.3 °C 56.7 °F /  13.7 °C 30.1in /  1020.3hPa NE 0.9mph /  1.4km/h 3mph /  4.8km/h 66% 0in /  0.0mm 0 W/m2
22:34 68.4 °F /  20.2 °C 56.5 °F /  13.6 °C 30.1in /  1020.3hPa NW 2mph /  3.2km/h 3mph /  4.8km/h 66% 0in /  0.0mm 0 W/m2
22:39 68.2 °F /  20.1 °C 56.8 °F /  13.8 °C 30.1in /  1020.7hPa North 0.9mph /  1.4km/h 2mph /  3.2km/h 67% 0in /  0.0mm 0 W/m2
22:44 67.8 °F /  19.9 °C 56.8 °F /  13.8 °C 30.1in /  1020.7hPa NNW 0.9mph /  1.4km/h 2mph /  3.2km/h 68% 0in /  0.0mm 0 W/m2
22:49 67.6 °F /  19.8 °C 56.7 °F /  13.7 °C 30.1in /  1020.7hPa NW 2mph /  3.2km/h 4mph /  6.4km/h 68% 0in /  0.0mm 0 W/m2
22:54 67.6 °F /  19.8 °C 56.7 °F /  13.7 °C 30.1in /  1020.7hPa NNW 0.9mph /  1.4km/h 4mph /  6.4km/h 68% 0in /  0.0mm 0 W/m2
22:59 67.5 °F /  19.7 °C 56.5 °F /  13.6 °C 30.2in /  1021.0hPa NW 2.9mph /  4.7km/h 3mph /  4.8km/h 68% 0in /  0.0mm 0 W/m2
23:04 67.3 °F /  19.6 °C 56.3 °F /  13.5 °C 30.2in /  1021.0hPa West 2mph /  3.2km/h 4mph /  6.4km/h 68% 0in /  0.0mm 0 W/m2
23:09 67.1 °F /  19.5 °C 56.1 °F /  13.4 °C 30.2in /  1021.0hPa West 2mph /  3.2km/h 4mph /  6.4km/h 68% 0in /  0.0mm 0 W/m2
23:14 66.9 °F /  19.4 °C 56.5 °F /  13.6 °C 30.2in /  1021.0hPa West 2.9mph /  4.7km/h 3mph /  4.8km/h 69% 0in /  0.0mm 0 W/m2
23:19 66.9 °F /  19.4 °C 56.5 °F /  13.6 °C 30.2in /  1021.0hPa Calm   2mph /  3.2km/h 69% 0in /  0.0mm 0 W/m2
23:24 66.7 °F /  19.3 °C 56.3 °F /  13.5 °C 30.2in /  1021.3hPa Calm   1mph /  1.6km/h 69% 0in /  0.0mm 0 W/m2
23:29 66.6 °F /  19.2 °C 56.1 °F /  13.4 °C 30.2in /  1021.3hPa NW 4.9mph /  7.9km/h 6mph /  9.7km/h 69% 0in /  0.0mm 0 W/m2
23:34 66.6 °F /  19.2 °C 56.1 °F /  13.4 °C 30.2in /  1021.3hPa WNW 2mph /  3.2km/h 4mph /  6.4km/h 69% 0in /  0.0mm 0 W/m2
23:39 66.4 °F /  19.1 °C 56.3 °F /  13.5 °C 30.2in /  1021.3hPa WNW 2mph /  3.2km/h 3mph /  4.8km/h 70% 0in /  0.0mm 0 W/m2
23:44 66.2 °F /  19 °C 56.1 °F /  13.4 °C 30.2in /  1021.3hPa WNW 2mph /  3.2km/h 4mph /  6.4km/h 70% 0in /  0.0mm 0 W/m2
23:49 66 °F /  18.9 °C 55.9 °F /  13.3 °C 30.2in /  1021.3hPa NNE 0.9mph /  1.4km/h 2mph /  3.2km/h 70% 0in /  0.0mm 0 W/m2
23:54 66 °F /  18.9 °C 55.9 °F /  13.3 °C 30.2in /  1021.3hPa NNW 2mph /  3.2km/h 4mph /  6.4km/h 70% 0in /  0.0mm 0 W/m2
23:59 65.8 °F /  18.8 °C 55.8 °F /  13.2 °C 30.2in /  1021.3hPa West 2mph /  3.2km/h 4mph /  6.4km/h 70% 0in /  0.0mm 0 W/m2
Juneau County Weather
Compliments of Weather Underground - 4 mb